Traben Trarbach, Germania

09:36 AM CEST die 26o May, anno 2015 (GMT +0200)
Mittelmosel | | Change Station
CLOSE
Current Station
Personal Weather Stations
Location: Traben-Trarbach, RHEINLAND-PFALZ
Elevation: 367 ft
Nearby Weather Stations

Elev 367 ft 49.97 °N, 7.11 °E | Updated 2 minutes ago

Mostly Cloudy
Plerumque Nubila
53.3 °F
Feels Like 53.3 °F
N
2.0
Ventus Variabilis Ventus from Aquilo
Gusts 4.0 mph

Hodie
High -- | Low -- °F
--% Chance of Precip.
Yesterday
High -- | Low -- °F
Precip. -- in
5:33 AM 9:24 PM
First Quarter, 56% visible
Pressio 30.10 in
Visibilitas 6.2 milia passuum
Clouds Nubes Dispersae 2400 ft
Plerumque Nubila 3300 ft
Plerumque Nubila 5500 ft
Frigus in quo Ros apparet 46 °F
Umor 75%
Rainfall 0.00 in
Snow Depth Not available.
UV 2 out of 12
Pollen Not available.
Air Quality Not available.
Flu Activity Not available.
SPECI ETAD 260729Z AUTO 35005KT 9999 SCT024 BKN033 BKN055 10/05 A3010 RMK AO2 CIG 023 RWY23

More Conditions Fewer Conditions

Pressio 30.10 in
Visibilitas 6.2 milia passuum
Clouds Nubes Dispersae 2400 ft
Plerumque Nubila 3300 ft
Plerumque Nubila 5500 ft
Frigus in quo Ros apparet 46 °F
Umor 75%
Rainfall 0.00 in
Snow Depth Not available.
UV 2 out of 12
Pollen Not available.
Air Quality Not available.
Flu Activity Not available.
SPECI ETAD 260729Z AUTO 35005KT 9999 SCT024 BKN033 BKN055 10/05 A3010 RMK AO2 CIG 023 RWY23

More Conditions Fewer Conditions

10-Day Weather Forecast

Almanac

Astronomy

May. 26, 2015 Rise Set
Actual Time
Civil Twilight
Nautical Twilight
Astronomical Twilight
Moon
Length Of Visible Light
Length of Day
Tomorrow will be .
, % of the Moon is Illuminated

Today's Extremes

Country Highs Country Lows

Community

WunderPhotos

Upload Photos

1,824,302 photos uploaded!

WunderBlogs® & News

Nearby

Air Quality

  Air Quality AQ Index Pollutant
Not available.

Snow Depth

Station Depth Elevation

Earthquake Activity

City Distance Mag. Time & Date
Minimum magnitude displayed is 2.5.

Coastal Water Temperatures

Locus Calor

Stations

Nearby Weather Stations

Station Location Temp Frigus Venti Frigus in quo Ros apparet Umor Ventus Precip. Elev Renovata Type